createdAt,value
2022-08-17T00:00:33.295Z,6.97
2022-08-17T00:05:42.200Z,4.70
2022-08-17T00:10:45.840Z,7.13
2022-08-17T00:15:48.727Z,5.20
2022-08-17T00:20:51.471Z,5.77
2022-08-17T00:25:55.100Z,4.70
2022-08-17T00:30:58.038Z,5.10
2022-08-17T00:36:01.740Z,4.60
2022-08-17T00:41:13.346Z,4.97
2022-08-17T00:46:29.635Z,4.87
2022-08-17T00:51:35.427Z,5.80
2022-08-17T00:56:44.686Z,5.70
2022-08-17T01:01:49.400Z,5.53
2022-08-17T01:06:53.102Z,5.20
2022-08-17T01:11:55.559Z,6.20
2022-08-17T01:17:00.273Z,5.00
2022-08-17T01:22:11.859Z,5.67
2022-08-17T01:27:16.315Z,4.53
2022-08-17T01:32:21.150Z,4.97
2022-08-17T01:37:32.586Z,4.23
2022-08-17T01:43:01.084Z,4.80
2022-08-17T01:48:03.888Z,4.57
2022-08-17T01:53:15.840Z,4.53
2022-08-17T01:58:19.293Z,5.73
2022-08-17T02:03:24.616Z,4.37
2022-08-17T02:08:37.147Z,16.50
2022-08-17T02:13:43.805Z,4.93
2022-08-17T02:18:46.676Z,5.10
2022-08-17T02:23:50.166Z,5.27
2022-08-17T02:28:53.617Z,5.47
2022-08-17T02:34:00.535Z,5.00
2022-08-17T02:39:09.708Z,5.90
2022-08-17T02:44:12.465Z,6.90
2022-08-17T02:49:15.851Z,4.60
2022-08-17T02:54:40.267Z,4.90
2022-08-17T02:59:43.315Z,4.83
2022-08-17T03:04:50.878Z,5.37
2022-08-17T03:09:54.039Z,5.03
2022-08-17T03:14:56.564Z,4.87
2022-08-17T03:19:59.462Z,4.93
2022-08-17T03:25:02.001Z,5.07
2022-08-17T03:30:07.583Z,8.27
2022-08-17T03:35:12.272Z,8.13
2022-08-17T03:40:15.805Z,42.77
2022-08-17T03:45:58.778Z,7.27
2022-08-17T03:51:20.200Z,27.67
2022-08-17T03:56:41.369Z,32.30
2022-08-17T04:01:46.083Z,21.10
2022-08-17T04:06:48.614Z,5.07
2022-08-17T04:11:51.046Z,9.00
2022-08-17T04:16:53.641Z,17.47
2022-08-17T04:21:57.884Z,19.93
2022-08-17T04:27:01.724Z,8.50
2022-08-17T04:32:04.601Z,7.83
2022-08-17T04:37:08.758Z,5.53
2022-08-17T04:42:17.299Z,11.33
2022-08-17T04:47:19.412Z,7.30
2022-08-17T04:52:32.289Z,6.03
2022-08-17T04:57:45.258Z,6.57
2022-08-17T05:02:50.101Z,6.30
2022-08-17T05:07:54.830Z,7.07
2022-08-17T05:13:01.508Z,6.17
2022-08-17T05:18:04.900Z,6.50
2022-08-17T05:23:10.639Z,6.80
2022-08-17T05:28:14.260Z,6.23
2022-08-17T05:33:21.922Z,6.13
2022-08-17T05:38:26.957Z,6.60
2022-08-17T05:43:32.332Z,8.27
2022-08-17T05:48:41.581Z,8.63
2022-08-17T05:53:54.012Z,11.23
2022-08-17T05:58:56.595Z,8.70
2022-08-17T06:04:31.400Z,7.90
2022-08-17T06:09:37.103Z,6.97
2022-08-17T06:14:51.484Z,8.77
2022-08-17T06:20:03.707Z,8.33
2022-08-17T06:25:16.314Z,11.57
2022-08-17T06:30:26.408Z,12.77
2022-08-17T06:36:09.337Z,6.70
2022-08-17T06:41:29.142Z,8.90
2022-08-17T06:46:43.498Z,7.90
2022-08-17T06:51:58.205Z,10.20
2022-08-17T06:57:10.800Z,8.87
2022-08-17T07:02:19.878Z,7.13
2022-08-17T07:07:53.588Z,8.13
2022-08-17T07:13:02.836Z,8.53
2022-08-17T07:18:05.411Z,7.23
2022-08-17T07:23:19.418Z,6.70
2022-08-17T07:28:26.263Z,5.90
2022-08-17T07:33:31.922Z,6.33
2022-08-17T07:38:35.679Z,6.20
2022-08-17T07:43:40.946Z,5.73
2022-08-17T07:48:46.564Z,6.30
2022-08-17T07:53:49.650Z,5.17
2022-08-17T07:59:11.229Z,4.40
2022-08-17T08:04:43.218Z,5.23
2022-08-17T08:10:01.489Z,5.10
2022-08-17T08:15:19.560Z,4.60
2022-08-17T08:21:00.448Z,6.00
2022-08-17T08:26:25.353Z,6.83
2022-08-17T08:31:58.168Z,6.50
2022-08-17T08:37:15.371Z,8.57
2022-08-17T08:42:32.986Z,5.10
2022-08-17T08:48:12.737Z,7.50
2022-08-17T08:53:32.193Z,10.67
2022-08-17T08:58:43.651Z,4.90
2022-08-17T09:03:54.916Z,4.10
2022-08-17T09:09:30.356Z,5.73
2022-08-17T09:14:54.552Z,4.43
2022-08-17T09:20:05.211Z,4.63
2022-08-17T09:25:10.178Z,22.47
2022-08-17T09:30:14.041Z,8.80
2022-08-17T09:35:37.130Z,5.33
2022-08-17T09:41:32.380Z,12.23
2022-08-17T09:46:53.770Z,6.10
2022-08-17T09:52:20.977Z,5.37
2022-08-17T09:57:42.457Z,6.70
2022-08-17T10:03:03.204Z,6.60
2022-08-17T10:08:27.770Z,6.27
2022-08-17T10:13:36.169Z,6.33
2022-08-17T10:19:09.973Z,5.93
2022-08-17T10:25:21.857Z,6.10
2022-08-17T10:30:16.089Z,5.87
2022-08-17T10:35:25.940Z,5.50
2022-08-17T10:40:50.399Z,6.10
2022-08-17T10:46:30.282Z,5.10
2022-08-17T10:51:38.128Z,5.43
2022-08-17T10:56:51.027Z,4.73
2022-08-17T11:02:19.568Z,5.23
2022-08-17T11:08:07.056Z,7.20
2022-08-17T11:13:12.217Z,5.00
2022-08-17T11:18:26.438Z,5.13
2022-08-17T11:24:13.004Z,6.90
2022-08-17T11:30:01.881Z,5.00
2022-08-17T11:35:23.342Z,4.43
2022-08-17T11:40:52.366Z,4.87
2022-08-17T11:46:14.814Z,5.60
2022-08-17T11:51:42.095Z,6.10
2022-08-17T11:56:50.536Z,4.30
2022-08-17T12:01:56.832Z,7.67
2022-08-17T12:07:05.404Z,7.13
2022-08-17T12:12:14.430Z,5.37
2022-08-17T12:17:29.582Z,4.87
2022-08-17T12:23:01.242Z,4.80
2022-08-17T12:28:20.004Z,4.80
2022-08-17T12:33:28.003Z,5.17
2022-08-17T12:38:34.753Z,6.07
2022-08-17T12:43:37.653Z,5.40
2022-08-17T12:48:40.192Z,7.13
2022-08-17T12:54:03.047Z,6.93
2022-08-17T12:59:07.232Z,4.03
2022-08-17T13:04:15.667Z,5.77
2022-08-17T13:09:33.530Z,4.77
2022-08-17T13:14:38.369Z,4.17
2022-08-17T13:19:49.815Z,5.27
2022-08-17T13:24:58.340Z,5.50
2022-08-17T13:30:11.692Z,5.78
2022-08-17T13:35:39.464Z,5.10
2022-08-17T13:40:50.342Z,4.95
2022-08-17T13:45:53.381Z,22.08
2022-08-17T13:50:55.382Z,58.33
2022-08-17T13:56:31.702Z,148.75
2022-08-17T14:01:39.269Z,119.90
2022-08-17T14:07:10.670Z,61.90
2022-08-17T14:12:17.446Z,74.50
2022-08-17T14:17:20.173Z,3.65
2022-08-17T14:22:32.244Z,102.63
2022-08-17T14:27:51.945Z,181.15
2022-08-17T14:32:56.500Z,151.40
2022-08-17T14:37:58.959Z,121.68
2022-08-17T14:43:01.515Z,114.35
2022-08-17T14:48:07.799Z,86.30
2022-08-17T14:53:12.367Z,82.87
2022-08-17T14:58:14.850Z,70.67
2022-08-17T15:03:18.750Z,49.10
2022-08-17T15:08:22.066Z,77.20
2022-08-17T15:13:27.301Z,100.93
2022-08-17T15:18:33.084Z,131.33
2022-08-17T15:23:36.299Z,5.37
2022-08-17T15:28:38.887Z,4.20
2022-08-17T15:33:41.868Z,38.03
2022-08-17T15:38:44.578Z,335.13
2022-08-17T15:43:50.230Z,345.67
2022-08-17T15:49:00.143Z,361.93
2022-08-17T15:54:18.723Z,334.40
2022-08-17T15:59:25.181Z,305.50
2022-08-17T16:04:31.031Z,274.00
2022-08-17T16:09:35.059Z,264.60
2022-08-17T16:14:37.825Z,421.23
2022-08-17T16:19:41.687Z,201.07
2022-08-17T16:24:56.753Z,179.77
2022-08-17T16:30:01.078Z,159.60
2022-08-17T16:35:07.408Z,150.73
2022-08-17T16:40:11.654Z,138.40
2022-08-17T16:45:18.630Z,112.15
2022-08-17T16:50:23.579Z,105.37
2022-08-17T16:55:26.396Z,80.30
2022-08-17T17:00:30.127Z,79.67
2022-08-17T17:05:58.106Z,89.23
2022-08-17T17:11:09.289Z,61.00
2022-08-17T17:16:34.661Z,57.40
2022-08-17T17:22:00.114Z,5.57
2022-08-17T17:27:39.148Z,16.47
2022-08-17T17:32:56.010Z,4.90
2022-08-17T17:38:03.513Z,25.13
2022-08-17T17:43:36.872Z,22.33
2022-08-17T17:48:34.227Z,6.20
2022-08-17T17:53:44.967Z,5.67
2022-08-17T17:59:12.534Z,50.80
2022-08-17T18:04:41.442Z,28.87
2022-08-17T18:10:02.719Z,65.10
2022-08-17T18:15:08.289Z,5.53
2022-08-17T18:20:10.929Z,24.93
2022-08-17T18:25:39.570Z,17.20
2022-08-17T18:30:42.228Z,21.90
2022-08-17T18:35:58.562Z,18.60
2022-08-17T18:41:30.533Z,21.20
2022-08-17T18:46:37.945Z,123.70
2022-08-17T18:51:43.417Z,11.23
2022-08-17T18:56:59.898Z,13.33
2022-08-17T19:02:36.042Z,14.40
2022-08-17T19:07:50.593Z,11.33
2022-08-17T19:13:00.810Z,10.13
2022-08-17T19:18:15.679Z,13.53
2022-08-17T19:23:58.998Z,13.63
2022-08-17T19:29:22.193Z,6.03
2022-08-17T19:34:30.329Z,6.83
2022-08-17T19:40:09.408Z,5.93
2022-08-17T19:45:12.236Z,7.77
2022-08-17T19:50:45.937Z,11.70
2022-08-17T19:56:11.519Z,6.63
2022-08-17T20:01:40.997Z,8.53
2022-08-17T20:06:49.399Z,6.07
2022-08-17T20:11:58.948Z,11.10
2022-08-17T20:17:04.654Z,6.23
2022-08-17T20:22:18.145Z,11.47
2022-08-17T20:27:31.755Z,19.63
2022-08-17T20:32:55.298Z,12.63
2022-08-17T20:38:02.768Z,8.07
2022-08-17T20:43:29.627Z,11.43
2022-08-17T20:48:48.369Z,5.80
2022-08-17T20:53:51.468Z,5.50
2022-08-17T20:58:53.931Z,7.20
2022-08-17T21:03:57.447Z,7.17
2022-08-17T21:09:28.633Z,5.90
2022-08-17T21:14:34.202Z,6.23
2022-08-17T21:20:00.227Z,6.83
2022-08-17T21:25:03.049Z,6.50
2022-08-17T21:30:21.093Z,5.73
2022-08-17T21:35:44.683Z,6.17
2022-08-17T21:40:52.820Z,6.17
2022-08-17T21:46:00.638Z,5.73
2022-08-17T21:51:10.537Z,5.70
2022-08-17T21:56:20.965Z,8.83
2022-08-17T22:01:34.584Z,6.00
2022-08-17T22:06:55.834Z,5.87
2022-08-17T22:12:01.387Z,5.93
2022-08-17T22:17:17.168Z,5.83
2022-08-17T22:22:58.531Z,5.00
2022-08-17T22:28:04.340Z,4.83
2022-08-17T22:33:38.101Z,5.40
2022-08-17T22:38:43.624Z,4.93
2022-08-17T22:43:46.421Z,5.77
2022-08-17T22:48:59.947Z,4.30
2022-08-17T22:54:35.093Z,4.63
2022-08-17T22:59:43.821Z,4.43
2022-08-17T23:04:59.362Z,4.17
2022-08-17T23:10:06.556Z,4.23
2022-08-17T23:15:17.731Z,4.90
2022-08-17T23:20:20.695Z,5.13
2022-08-17T23:25:28.168Z,5.00
2022-08-17T23:30:33.685Z,5.83
2022-08-17T23:35:39.721Z,5.07
2022-08-17T23:40:43.248Z,5.37
2022-08-17T23:45:46.141Z,4.70
2022-08-17T23:50:51.728Z,5.27
2022-08-17T23:56:03.894Z,4.83
